sensor_id;sensor_type;location;lat;lon;timestamp;temperature;humidity
30206;DHT22;17010;51.306;3.150;2022-09-03T00:01:20;20.10;99.90
30206;DHT22;17010;51.306;3.150;2022-09-03T00:03:58;20.10;99.90
30206;DHT22;17010;51.306;3.150;2022-09-03T00:06:37;20.20;99.90
30206;DHT22;17010;51.306;3.150;2022-09-03T00:09:35;20.10;99.90
30206;DHT22;17010;51.306;3.150;2022-09-03T00:12:18;20.20;99.90
30206;DHT22;17010;51.306;3.150;2022-09-03T00:14:59;20.20;99.90
30206;DHT22;17010;51.306;3.150;2022-09-03T00:17:36;20.20;99.90
30206;DHT22;17010;51.306;3.150;2022-09-03T00:22:38;20.10;99.90
30206;DHT22;17010;51.306;3.150;2022-09-03T00:25:08;20.10;99.90
30206;DHT22;17010;51.306;3.150;2022-09-03T00:27:40;20.10;99.90
30206;DHT22;17010;51.306;3.150;2022-09-03T00:30:10;20.00;99.90
30206;DHT22;17010;51.306;3.150;2022-09-03T00:32:57;20.00;99.90
30206;DHT22;17010;51.306;3.150;2022-09-03T00:35:27;20.00;99.90
30206;DHT22;17010;51.306;3.150;2022-09-03T00:37:54;19.90;99.90
30206;DHT22;17010;51.306;3.150;2022-09-03T00:40:35;19.90;99.90
30206;DHT22;17010;51.306;3.150;2022-09-03T00:45:43;19.90;99.90
30206;DHT22;17010;51.306;3.150;2022-09-03T00:48:26;19.90;99.90
30206;DHT22;17010;51.306;3.150;2022-09-03T00:51:17;19.90;99.90
30206;DHT22;17010;51.306;3.150;2022-09-03T00:54:02;19.90;99.90
30206;DHT22;17010;51.306;3.150;2022-09-03T01:10:20;20.10;99.90
30206;DHT22;17010;51.306;3.150;2022-09-03T01:13:11;20.10;99.90
30206;DHT22;17010;51.306;3.150;2022-09-03T01:25:20;20.10;99.90
30206;DHT22;17010;51.306;3.150;2022-09-03T01:28:18;20.10;99.90
30206;DHT22;17010;51.306;3.150;2022-09-03T01:30:56;20.10;99.90
30206;DHT22;17010;51.306;3.150;2022-09-03T01:33:39;20.10;99.90
30206;DHT22;17010;51.306;3.150;2022-09-03T01:36:21;20.10;99.90
30206;DHT22;17010;51.306;3.150;2022-09-03T01:39:12;20.20;99.90
30206;DHT22;17010;51.306;3.150;2022-09-03T01:41:47;20.20;99.90
30206;DHT22;17010;51.306;3.150;2022-09-03T01:44:59;20.10;99.90
30206;DHT22;17010;51.306;3.150;2022-09-03T01:50:52;20.10;99.90
30206;DHT22;17010;51.306;3.150;2022-09-03T01:54:15;20.00;99.90
30206;DHT22;17010;51.306;3.150;2022-09-03T01:57:14;20.00;99.90
30206;DHT22;17010;51.306;3.150;2022-09-03T01:59:49;20.00;99.90
30206;DHT22;17010;51.306;3.150;2022-09-03T02:02:20;19.90;99.90
30206;DHT22;17010;51.306;3.150;2022-09-03T02:05:04;19.90;99.90
30206;DHT22;17010;51.306;3.150;2022-09-03T02:08:09;19.90;99.90
30206;DHT22;17010;51.306;3.150;2022-09-03T02:10:40;19.80;99.90
30206;DHT22;17010;51.306;3.150;2022-09-03T02:13:23;19.80;99.90
30206;DHT22;17010;51.306;3.150;2022-09-03T02:15:52;19.70;99.90
30206;DHT22;17010;51.306;3.150;2022-09-03T02:18:32;19.70;99.90
30206;DHT22;17010;51.306;3.150;2022-09-03T02:21:01;19.60;99.90
30206;DHT22;17010;51.306;3.150;2022-09-03T02:23:27;19.60;99.90
30206;DHT22;17010;51.306;3.150;2022-09-03T02:26:00;19.50;99.90
30206;DHT22;17010;51.306;3.150;2022-09-03T02:28:30;19.40;99.90
30206;DHT22;17010;51.306;3.150;2022-09-03T02:30:57;19.30;99.90
30206;DHT22;17010;51.306;3.150;2022-09-03T02:33:23;19.30;99.90
30206;DHT22;17010;51.306;3.150;2022-09-03T02:35:49;19.30;99.90
30206;DHT22;17010;51.306;3.150;2022-09-03T02:38:18;19.30;99.90
30206;DHT22;17010;51.306;3.150;2022-09-03T02:40:45;19.40;99.90
30206;DHT22;17010;51.306;3.150;2022-09-03T02:43:16;19.40;99.90
30206;DHT22;17010;51.306;3.150;2022-09-03T02:45:47;19.40;99.90
30206;DHT22;17010;51.306;3.150;2022-09-03T02:48:16;19.50;99.90
30206;DHT22;17010;51.306;3.150;2022-09-03T02:50:44;19.40;99.90
30206;DHT22;17010;51.306;3.150;2022-09-03T02:53:10;19.50;99.90
30206;DHT22;17010;51.306;3.150;2022-09-03T02:55:36;19.40;99.90
30206;DHT22;17010;51.306;3.150;2022-09-03T02:58:02;19.50;99.90
30206;DHT22;17010;51.306;3.150;2022-09-03T03:00:30;19.40;99.90
30206;DHT22;17010;51.306;3.150;2022-09-03T03:02:56;19.40;99.90
30206;DHT22;17010;51.306;3.150;2022-09-03T03:05:31;19.40;99.90
30206;DHT22;17010;51.306;3.150;2022-09-03T03:08:01;19.40;99.90
30206;DHT22;17010;51.306;3.150;2022-09-03T03:10:27;19.30;99.90
30206;DHT22;17010;51.306;3.150;2022-09-03T03:12:53;19.30;99.90
30206;DHT22;17010;51.306;3.150;2022-09-03T03:15:19;19.30;99.90
30206;DHT22;17010;51.306;3.150;2022-09-03T03:17:45;19.30;99.90
30206;DHT22;17010;51.306;3.150;2022-09-03T03:20:11;19.30;99.90
30206;DHT22;17010;51.306;3.150;2022-09-03T03:22:37;19.30;99.90
30206;DHT22;17010;51.306;3.150;2022-09-03T03:25:04;19.30;99.90
30206;DHT22;17010;51.306;3.150;2022-09-03T03:27:30;19.30;99.90
30206;DHT22;17010;51.306;3.150;2022-09-03T03:29:59;19.30;99.90
30206;DHT22;17010;51.306;3.150;2022-09-03T03:32:25;19.30;99.90
30206;DHT22;17010;51.306;3.150;2022-09-03T03:34:54;19.30;99.90
30206;DHT22;17010;51.306;3.150;2022-09-03T03:37:20;19.30;99.90
30206;DHT22;17010;51.306;3.150;2022-09-03T03:39:46;19.30;99.90
30206;DHT22;17010;51.306;3.150;2022-09-03T03:42:12;19.30;99.90
30206;DHT22;17010;51.306;3.150;2022-09-03T03:44:39;19.30;99.90
30206;DHT22;17010;51.306;3.150;2022-09-03T03:47:07;19.30;99.90
30206;DHT22;17010;51.306;3.150;2022-09-03T03:49:33;19.20;99.90
30206;DHT22;17010;51.306;3.150;2022-09-03T03:51:59;19.20;99.90
30206;DHT22;17010;51.306;3.150;2022-09-03T03:54:25;19.10;99.90
30206;DHT22;17010;51.306;3.150;2022-09-03T03:56:51;19.00;99.90
30206;DHT22;17010;51.306;3.150;2022-09-03T03:59:17;18.90;99.90
30206;DHT22;17010;51.306;3.150;2022-09-03T04:01:43;18.90;99.90
30206;DHT22;17010;51.306;3.150;2022-09-03T04:04:09;18.80;99.90
30206;DHT22;17010;51.306;3.150;2022-09-03T04:06:36;18.80;99.90
30206;DHT22;17010;51.306;3.150;2022-09-03T04:09:02;18.80;99.90
30206;DHT22;17010;51.306;3.150;2022-09-03T04:11:28;18.80;99.90
30206;DHT22;17010;51.306;3.150;2022-09-03T04:13:54;18.80;99.90
30206;DHT22;17010;51.306;3.150;2022-09-03T04:16:25;18.80;99.90
30206;DHT22;17010;51.306;3.150;2022-09-03T04:18:55;18.80;99.90
30206;DHT22;17010;51.306;3.150;2022-09-03T04:21:24;18.80;99.90
30206;DHT22;17010;51.306;3.150;2022-09-03T04:23:51;18.70;99.90
30206;DHT22;17010;51.306;3.150;2022-09-03T04:26:20;18.70;99.90
30206;DHT22;17010;51.306;3.150;2022-09-03T04:28:47;18.70;99.90
30206;DHT22;17010;51.306;3.150;2022-09-03T04:31:15;18.70;99.90
30206;DHT22;17010;51.306;3.150;2022-09-03T04:33:41;18.60;99.90
30206;DHT22;17010;51.306;3.150;2022-09-03T04:36:10;18.60;99.90
30206;DHT22;17010;51.306;3.150;2022-09-03T04:38:40;18.50;99.90
30206;DHT22;17010;51.306;3.150;2022-09-03T04:41:07;18.50;99.90
30206;DHT22;17010;51.306;3.150;2022-09-03T04:43:34;18.50;99.90
30206;DHT22;17010;51.306;3.150;2022-09-03T04:46:05;18.50;99.90
30206;DHT22;17010;51.306;3.150;2022-09-03T04:48:32;18.60;99.90
30206;DHT22;17010;51.306;3.150;2022-09-03T04:51:07;18.60;99.90
30206;DHT22;17010;51.306;3.150;2022-09-03T04:53:34;18.60;99.90
30206;DHT22;17010;51.306;3.150;2022-09-03T04:56:02;18.60;99.90
30206;DHT22;17010;51.306;3.150;2022-09-03T04:58:28;18.60;99.90
30206;DHT22;17010;51.306;3.150;2022-09-03T05:00:55;18.70;99.90
30206;DHT22;17010;51.306;3.150;2022-09-03T05:03:21;18.70;99.90
30206;DHT22;17010;51.306;3.150;2022-09-03T05:05:52;18.70;99.90
30206;DHT22;17010;51.306;3.150;2022-09-03T05:08:18;18.80;99.90
30206;DHT22;17010;51.306;3.150;2022-09-03T05:10:44;18.80;99.90
30206;DHT22;17010;51.306;3.150;2022-09-03T05:13:10;18.70;99.90
30206;DHT22;17010;51.306;3.150;2022-09-03T05:15:36;18.70;99.90
30206;DHT22;17010;51.306;3.150;2022-09-03T05:18:02;18.80;99.90
30206;DHT22;17010;51.306;3.150;2022-09-03T05:20:29;18.80;99.90
30206;DHT22;17010;51.306;3.150;2022-09-03T05:22:56;18.80;99.90
30206;DHT22;17010;51.306;3.150;2022-09-03T05:25:23;18.80;99.90
30206;DHT22;17010;51.306;3.150;2022-09-03T05:27:49;18.80;99.90
30206;DHT22;17010;51.306;3.150;2022-09-03T05:30:16;18.90;99.90
30206;DHT22;17010;51.306;3.150;2022-09-03T05:32:42;18.90;99.90
30206;DHT22;17010;51.306;3.150;2022-09-03T05:35:09;18.90;99.90
30206;DHT22;17010;51.306;3.150;2022-09-03T05:37:36;18.90;99.90
30206;DHT22;17010;51.306;3.150;2022-09-03T05:40:03;19.00;99.90
30206;DHT22;17010;51.306;3.150;2022-09-03T05:42:29;19.00;99.90
30206;DHT22;17010;51.306;3.150;2022-09-03T05:44:57;19.10;99.90
30206;DHT22;17010;51.306;3.150;2022-09-03T05:47:23;19.10;99.90
30206;DHT22;17010;51.306;3.150;2022-09-03T05:49:49;19.20;99.90
30206;DHT22;17010;51.306;3.150;2022-09-03T05:52:15;19.20;99.90
30206;DHT22;17010;51.306;3.150;2022-09-03T05:54:42;19.30;99.90
30206;DHT22;17010;51.306;3.150;2022-09-03T05:57:08;19.30;99.90
30206;DHT22;17010;51.306;3.150;2022-09-03T05:59:34;19.40;99.90
30206;DHT22;17010;51.306;3.150;2022-09-03T06:02:00;19.40;99.90
30206;DHT22;17010;51.306;3.150;2022-09-03T06:04:26;19.40;99.90
30206;DHT22;17010;51.306;3.150;2022-09-03T06:06:52;19.30;99.90
30206;DHT22;17010;51.306;3.150;2022-09-03T06:09:19;19.30;99.90
30206;DHT22;17010;51.306;3.150;2022-09-03T06:11:47;19.30;99.90
30206;DHT22;17010;51.306;3.150;2022-09-03T06:14:15;19.30;99.90
30206;DHT22;17010;51.306;3.150;2022-09-03T06:16:44;19.30;99.90
30206;DHT22;17010;51.306;3.150;2022-09-03T06:19:10;19.30;99.90
30206;DHT22;17010;51.306;3.150;2022-09-03T06:21:40;19.40;99.90
30206;DHT22;17010;51.306;3.150;2022-09-03T06:24:15;19.20;99.90
30206;DHT22;17010;51.306;3.150;2022-09-03T06:26:42;19.20;99.90
30206;DHT22;17010;51.306;3.150;2022-09-03T06:29:08;19.40;99.90
30206;DHT22;17010;51.306;3.150;2022-09-03T06:31:34;19.50;99.90
30206;DHT22;17010;51.306;3.150;2022-09-03T06:34:00;19.60;99.90
30206;DHT22;17010;51.306;3.150;2022-09-03T06:36:27;19.70;99.90
30206;DHT22;17010;51.306;3.150;2022-09-03T06:38:55;19.80;99.90
30206;DHT22;17010;51.306;3.150;2022-09-03T06:41:23;19.90;99.90
30206;DHT22;17010;51.306;3.150;2022-09-03T06:43:54;20.00;99.90
30206;DHT22;17010;51.306;3.150;2022-09-03T06:46:23;20.20;99.90
30206;DHT22;17010;51.306;3.150;2022-09-03T06:48:50;20.30;99.90
30206;DHT22;17010;51.306;3.150;2022-09-03T06:51:19;20.40;99.90
30206;DHT22;17010;51.306;3.150;2022-09-03T06:53:51;20.40;99.90
30206;DHT22;17010;51.306;3.150;2022-09-03T06:56:22;20.50;99.90
30206;DHT22;17010;51.306;3.150;2022-09-03T06:58:54;20.50;99.90
30206;DHT22;17010;51.306;3.150;2022-09-03T07:01:22;20.50;99.90
30206;DHT22;17010;51.306;3.150;2022-09-03T07:03:55;20.60;99.90
30206;DHT22;17010;51.306;3.150;2022-09-03T07:06:22;20.60;99.90
30206;DHT22;17010;51.306;3.150;2022-09-03T07:08:48;20.70;99.90
30206;DHT22;17010;51.306;3.150;2022-09-03T07:11:16;20.70;99.90
30206;DHT22;17010;51.306;3.150;2022-09-03T07:13:47;20.70;99.90
30206;DHT22;17010;51.306;3.150;2022-09-03T07:16:19;20.70;99.90
30206;DHT22;17010;51.306;3.150;2022-09-03T07:18:45;20.80;99.90
30206;DHT22;17010;51.306;3.150;2022-09-03T07:21:13;20.80;99.90
30206;DHT22;17010;51.306;3.150;2022-09-03T07:23:40;20.90;99.90
30206;DHT22;17010;51.306;3.150;2022-09-03T07:26:09;21.00;99.90
30206;DHT22;17010;51.306;3.150;2022-09-03T07:28:38;21.20;99.90
30206;DHT22;17010;51.306;3.150;2022-09-03T07:33:41;21.20;99.90
30206;DHT22;17010;51.306;3.150;2022-09-03T07:36:09;21.30;99.90
30206;DHT22;17010;51.306;3.150;2022-09-03T07:38:36;21.40;99.90
30206;DHT22;17010;51.306;3.150;2022-09-03T07:41:04;21.50;99.90
30206;DHT22;17010;51.306;3.150;2022-09-03T07:43:36;21.40;99.90
30206;DHT22;17010;51.306;3.150;2022-09-03T07:46:05;21.50;99.90
30206;DHT22;17010;51.306;3.150;2022-09-03T07:48:32;21.60;99.90
30206;DHT22;17010;51.306;3.150;2022-09-03T07:50:59;21.80;99.90
30206;DHT22;17010;51.306;3.150;2022-09-03T07:53:28;21.90;99.90
30206;DHT22;17010;51.306;3.150;2022-09-03T07:56:06;22.00;99.90
30206;DHT22;17010;51.306;3.150;2022-09-03T07:58:33;22.10;99.90
30206;DHT22;17010;51.306;3.150;2022-09-03T08:01:04;22.20;99.90
30206;DHT22;17010;51.306;3.150;2022-09-03T08:03:34;22.50;99.90
30206;DHT22;17010;51.306;3.150;2022-09-03T08:06:04;22.90;99.90
30206;DHT22;17010;51.306;3.150;2022-09-03T08:08:31;24.00;99.90
30206;DHT22;17010;51.306;3.150;2022-09-03T08:11:05;25.00;99.90
30206;DHT22;17010;51.306;3.150;2022-09-03T08:13:42;26.00;99.90
30206;DHT22;17010;51.306;3.150;2022-09-03T08:16:10;26.90;99.90
30206;DHT22;17010;51.306;3.150;2022-09-03T08:18:37;27.30;99.90
30206;DHT22;17010;51.306;3.150;2022-09-03T08:21:05;27.70;99.90
30206;DHT22;17010;51.306;3.150;2022-09-03T08:23:36;27.90;99.90
30206;DHT22;17010;51.306;3.150;2022-09-03T08:26:02;28.10;99.90
30206;DHT22;17010;51.306;3.150;2022-09-03T08:28:29;28.20;99.90
30206;DHT22;17010;51.306;3.150;2022-09-03T08:30:57;28.20;99.90
30206;DHT22;17010;51.306;3.150;2022-09-03T08:33:24;28.50;99.90
30206;DHT22;17010;51.306;3.150;2022-09-03T08:36:09;29.20;99.90
30206;DHT22;17010;51.306;3.150;2022-09-03T08:38:35;29.80;99.90
30206;DHT22;17010;51.306;3.150;2022-09-03T08:54:45;28.50;99.90
30206;DHT22;17010;51.306;3.150;2022-09-03T08:57:12;28.20;99.90
30206;DHT22;17010;51.306;3.150;2022-09-03T08:59:39;28.20;99.90
30206;DHT22;17010;51.306;3.150;2022-09-03T09:02:19;28.20;99.90
30206;DHT22;17010;51.306;3.150;2022-09-03T09:07:58;27.90;99.90
30206;DHT22;17010;51.306;3.150;2022-09-03T09:10:40;27.60;99.90
30206;DHT22;17010;51.306;3.150;2022-09-03T09:21:10;28.00;99.90
30206;DHT22;17010;51.306;3.150;2022-09-03T09:23:49;28.10;99.90
30206;DHT22;17010;51.306;3.150;2022-09-03T09:26:20;28.00;99.90
30206;DHT22;17010;51.306;3.150;2022-09-03T09:28:52;27.90;99.90
30206;DHT22;17010;51.306;3.150;2022-09-03T09:31:20;27.90;99.90
30206;DHT22;17010;51.306;3.150;2022-09-03T09:33:47;27.80;99.90
30206;DHT22;17010;51.306;3.150;2022-09-03T09:36:15;27.80;99.90
30206;DHT22;17010;51.306;3.150;2022-09-03T09:38:42;27.90;99.90
30206;DHT22;17010;51.306;3.150;2022-09-03T09:41:17;28.10;99.90
30206;DHT22;17010;51.306;3.150;2022-09-03T09:43:45;27.90;99.90
30206;DHT22;17010;51.306;3.150;2022-09-03T09:46:13;28.00;99.90
30206;DHT22;17010;51.306;3.150;2022-09-03T09:48:53;28.10;99.90
30206;DHT22;17010;51.306;3.150;2022-09-03T09:51:28;28.20;99.90
30206;DHT22;17010;51.306;3.150;2022-09-03T09:54:17;28.50;99.90
30206;DHT22;17010;51.306;3.150;2022-09-03T09:56:57;28.80;99.90
30206;DHT22;17010;51.306;3.150;2022-09-03T09:59:23;28.90;99.90
30206;DHT22;17010;51.306;3.150;2022-09-03T10:01:50;28.80;99.90
30206;DHT22;17010;51.306;3.150;2022-09-03T10:04:24;28.50;99.90
30206;DHT22;17010;51.306;3.150;2022-09-03T10:06:54;28.50;99.90
30206;DHT22;17010;51.306;3.150;2022-09-03T10:09:24;28.60;99.90
30206;DHT22;17010;51.306;3.150;2022-09-03T10:15:20;28.90;99.90
30206;DHT22;17010;51.306;3.150;2022-09-03T10:17:54;29.10;99.90
30206;DHT22;17010;51.306;3.150;2022-09-03T10:23:24;29.50;99.90
30206;DHT22;17010;51.306;3.150;2022-09-03T10:26:01;29.40;99.90
30206;DHT22;17010;51.306;3.150;2022-09-03T10:28:34;29.40;99.90
30206;DHT22;17010;51.306;3.150;2022-09-03T10:31:26;29.60;99.90
30206;DHT22;17010;51.306;3.150;2022-09-03T10:36:38;29.50;99.90
30206;DHT22;17010;51.306;3.150;2022-09-03T10:45:06;28.90;99.90
30206;DHT22;17010;51.306;3.150;2022-09-03T10:59:00;27.70;99.90
30206;DHT22;17010;51.306;3.150;2022-09-03T11:07:12;29.00;99.90
30206;DHT22;17010;51.306;3.150;2022-09-03T11:09:48;29.40;99.90
30206;DHT22;17010;51.306;3.150;2022-09-03T11:12:22;29.60;99.90
30206;DHT22;17010;51.306;3.150;2022-09-03T11:15:06;29.60;99.90
30206;DHT22;17010;51.306;3.150;2022-09-03T11:17:47;29.70;99.90
30206;DHT22;17010;51.306;3.150;2022-09-03T11:20:20;30.00;99.90
30206;DHT22;17010;51.306;3.150;2022-09-03T11:22:48;30.20;99.90
30206;DHT22;17010;51.306;3.150;2022-09-03T11:25:16;30.50;99.90
30206;DHT22;17010;51.306;3.150;2022-09-03T11:33:18;31.00;99.90
30206;DHT22;17010;51.306;3.150;2022-09-03T11:35:44;31.20;99.90
30206;DHT22;17010;51.306;3.150;2022-09-03T11:46:03;31.80;99.90
30206;DHT22;17010;51.306;3.150;2022-09-03T11:48:43;32.00;99.90
30206;DHT22;17010;51.306;3.150;2022-09-03T11:51:33;32.30;99.90
30206;DHT22;17010;51.306;3.150;2022-09-03T11:56:33;33.00;99.90
30206;DHT22;17010;51.306;3.150;2022-09-03T12:01:43;33.40;99.90
30206;DHT22;17010;51.306;3.150;2022-09-03T12:04:12;33.30;99.90
30206;DHT22;17010;51.306;3.150;2022-09-03T12:07:01;33.70;99.90
30206;DHT22;17010;51.306;3.150;2022-09-03T12:15:07;35.20;99.90
30206;DHT22;17010;51.306;3.150;2022-09-03T12:17:55;35.00;99.90
30206;DHT22;17010;51.306;3.150;2022-09-03T12:20:42;34.90;99.90
30206;DHT22;17010;51.306;3.150;2022-09-03T12:23:13;35.00;99.90
30206;DHT22;17010;51.306;3.150;2022-09-03T12:25:50;35.00;99.90
30206;DHT22;17010;51.306;3.150;2022-09-03T12:28:20;34.40;99.90
30206;DHT22;17010;51.306;3.150;2022-09-03T12:30:48;33.60;99.90
30206;DHT22;17010;51.306;3.150;2022-09-03T12:33:21;31.90;99.90
30206;DHT22;17010;51.306;3.150;2022-09-03T12:35:58;31.10;99.90
30206;DHT22;17010;51.306;3.150;2022-09-03T12:38:26;30.60;99.90
30206;DHT22;17010;51.306;3.150;2022-09-03T12:40:54;30.30;99.90
30206;DHT22;17010;51.306;3.150;2022-09-03T12:43:26;30.30;99.90
30206;DHT22;17010;51.306;3.150;2022-09-03T12:45:53;30.60;99.90
30206;DHT22;17010;51.306;3.150;2022-09-03T12:48:19;31.10;99.90
30206;DHT22;17010;51.306;3.150;2022-09-03T12:50:47;31.40;99.90
30206;DHT22;17010;51.306;3.150;2022-09-03T12:53:24;31.60;99.90
30206;DHT22;17010;51.306;3.150;2022-09-03T12:55:53;31.30;99.90
30206;DHT22;17010;51.306;3.150;2022-09-03T13:00:57;31.10;99.90
30206;DHT22;17010;51.306;3.150;2022-09-03T13:03:31;31.00;99.90
30206;DHT22;17010;51.306;3.150;2022-09-03T13:06:06;30.90;99.90
30206;DHT22;17010;51.306;3.150;2022-09-03T13:08:58;30.90;99.90
30206;DHT22;17010;51.306;3.150;2022-09-03T13:11:23;31.00;99.90
30206;DHT22;17010;51.306;3.150;2022-09-03T13:14:06;31.70;99.90
30206;DHT22;17010;51.306;3.150;2022-09-03T13:19:15;33.10;99.90
30206;DHT22;17010;51.306;3.150;2022-09-03T13:30:18;31.90;99.90
30206;DHT22;17010;51.306;3.150;2022-09-03T13:35:36;31.00;99.90
30206;DHT22;17010;51.306;3.150;2022-09-03T13:38:08;30.70;99.90
30206;DHT22;17010;51.306;3.150;2022-09-03T13:40:53;30.30;99.90
30206;DHT22;17010;51.306;3.150;2022-09-03T13:46:17;29.90;99.90
30206;DHT22;17010;51.306;3.150;2022-09-03T13:48:48;29.90;99.90
30206;DHT22;17010;51.306;3.150;2022-09-03T13:51:57;30.00;99.90
30206;DHT22;17010;51.306;3.150;2022-09-03T13:54:30;30.00;99.90
30206;DHT22;17010;51.306;3.150;2022-09-03T13:57:31;30.10;99.90
30206;DHT22;17010;51.306;3.150;2022-09-03T14:00:05;29.90;99.90
30206;DHT22;17010;51.306;3.150;2022-09-03T14:02:55;29.80;99.90
30206;DHT22;17010;51.306;3.150;2022-09-03T14:08:33;29.20;99.90
30206;DHT22;17010;51.306;3.150;2022-09-03T14:11:18;28.90;99.90
30206;DHT22;17010;51.306;3.150;2022-09-03T14:16:44;28.10;99.90
30206;DHT22;17010;51.306;3.150;2022-09-03T14:19:47;27.80;99.90
30206;DHT22;17010;51.306;3.150;2022-09-03T14:24:54;27.10;99.90
30206;DHT22;17010;51.306;3.150;2022-09-03T14:27:26;26.90;99.90
30206;DHT22;17010;51.306;3.150;2022-09-03T14:29:58;27.00;99.90
30206;DHT22;17010;51.306;3.150;2022-09-03T14:37:48;26.40;99.90
30206;DHT22;17010;51.306;3.150;2022-09-03T14:46:22;25.50;99.90
30206;DHT22;17010;51.306;3.150;2022-09-03T14:58:18;24.60;99.90
30206;DHT22;17010;51.306;3.150;2022-09-03T15:01:05;24.20;99.90
30206;DHT22;17010;51.306;3.150;2022-09-03T15:09:45;23.50;99.90
30206;DHT22;17010;51.306;3.150;2022-09-03T15:12:36;23.40;99.90
30206;DHT22;17010;51.306;3.150;2022-09-03T15:26:19;23.80;99.90
30206;DHT22;17010;51.306;3.150;2022-09-03T15:34:11;23.60;99.90
30206;DHT22;17010;51.306;3.150;2022-09-03T15:36:41;23.40;99.90
30206;DHT22;17010;51.306;3.150;2022-09-03T15:41:56;23.50;99.90
30206;DHT22;17010;51.306;3.150;2022-09-03T15:44:25;23.70;99.90
30206;DHT22;17010;51.306;3.150;2022-09-03T15:46:59;23.90;99.90
30206;DHT22;17010;51.306;3.150;2022-09-03T15:52:36;24.10;99.90
30206;DHT22;17010;51.306;3.150;2022-09-03T15:55:13;24.10;99.90
30206;DHT22;17010;51.306;3.150;2022-09-03T16:00:20;24.10;99.90
30206;DHT22;17010;51.306;3.150;2022-09-03T16:06:15;23.90;99.90
30206;DHT22;17010;51.306;3.150;2022-09-03T16:08:58;23.60;99.90
30206;DHT22;17010;51.306;3.150;2022-09-03T16:17:43;23.40;99.90
30206;DHT22;17010;51.306;3.150;2022-09-03T16:22:46;23.30;99.90
30206;DHT22;17010;51.306;3.150;2022-09-03T16:25:23;23.20;99.90
30206;DHT22;17010;51.306;3.150;2022-09-03T16:28:00;23.00;99.90
30206;DHT22;17010;51.306;3.150;2022-09-03T16:33:33;23.00;99.90
30206;DHT22;17010;51.306;3.150;2022-09-03T16:36:31;23.00;99.90
30206;DHT22;17010;51.306;3.150;2022-09-03T16:50:22;23.20;99.90
30206;DHT22;17010;51.306;3.150;2022-09-03T16:58:18;23.40;99.90
30206;DHT22;17010;51.306;3.150;2022-09-03T17:06:36;23.60;99.90
30206;DHT22;17010;51.306;3.150;2022-09-03T17:14:55;23.80;99.90
30206;DHT22;17010;51.306;3.150;2022-09-03T17:17:25;23.80;99.90
30206;DHT22;17010;51.306;3.150;2022-09-03T17:29:17;24.00;99.90
30206;DHT22;17010;51.306;3.150;2022-09-03T17:31:45;24.10;99.90
30206;DHT22;17010;51.306;3.150;2022-09-03T17:37:29;24.10;99.90
30206;DHT22;17010;51.306;3.150;2022-09-03T17:42:53;24.10;99.90
30206;DHT22;17010;51.306;3.150;2022-09-03T17:45:40;24.20;99.90
30206;DHT22;17010;51.306;3.150;2022-09-03T17:48:46;24.20;99.90
30206;DHT22;17010;51.306;3.150;2022-09-03T17:51:33;24.20;99.90
30206;DHT22;17010;51.306;3.150;2022-09-03T17:56:46;24.20;99.90
30206;DHT22;17010;51.306;3.150;2022-09-03T18:02:26;24.20;99.90
30206;DHT22;17010;51.306;3.150;2022-09-03T18:05:18;24.10;99.90
30206;DHT22;17010;51.306;3.150;2022-09-03T18:10:56;23.90;99.90
30206;DHT22;17010;51.306;3.150;2022-09-03T18:18:49;23.70;99.90
30206;DHT22;17010;51.306;3.150;2022-09-03T18:21:23;23.60;99.90
30206;DHT22;17010;51.306;3.150;2022-09-03T18:27:26;23.40;99.90
30206;DHT22;17010;51.306;3.150;2022-09-03T18:30:14;23.30;99.90
30206;DHT22;17010;51.306;3.150;2022-09-03T18:32:59;23.20;99.90
30206;DHT22;17010;51.306;3.150;2022-09-03T18:35:44;23.10;99.90
30206;DHT22;17010;51.306;3.150;2022-09-03T18:38:31;23.10;99.90
30206;DHT22;17010;51.306;3.150;2022-09-03T18:56:39;23.10;99.90
30206;DHT22;17010;51.306;3.150;2022-09-03T19:12:12;22.90;99.90
30206;DHT22;17010;51.306;3.150;2022-09-03T19:15:24;22.90;99.90
30206;DHT22;17010;51.306;3.150;2022-09-03T19:24:14;22.70;99.90
30206;DHT22;17010;51.306;3.150;2022-09-03T19:34:33;22.50;99.90
30206;DHT22;17010;51.306;3.150;2022-09-03T19:46:52;22.40;99.90
30206;DHT22;17010;51.306;3.150;2022-09-03T19:50:03;22.40;99.90
30206;DHT22;17010;51.306;3.150;2022-09-03T19:53:04;22.40;99.90
30206;DHT22;17010;51.306;3.150;2022-09-03T19:55:58;22.30;99.90
30206;DHT22;17010;51.306;3.150;2022-09-03T19:59:22;22.30;99.90
30206;DHT22;17010;51.306;3.150;2022-09-03T20:01:58;22.30;99.90
30206;DHT22;17010;51.306;3.150;2022-09-03T20:04:54;22.20;99.90
30206;DHT22;17010;51.306;3.150;2022-09-03T20:07:39;22.10;99.90
30206;DHT22;17010;51.306;3.150;2022-09-03T20:10:24;22.20;99.90
30206;DHT22;17010;51.306;3.150;2022-09-03T20:13:07;22.10;99.90
30206;DHT22;17010;51.306;3.150;2022-09-03T20:18:44;22.10;99.90
30206;DHT22;17010;51.306;3.150;2022-09-03T20:21:34;22.10;99.90
30206;DHT22;17010;51.306;3.150;2022-09-03T20:24:31;22.00;99.90
30206;DHT22;17010;51.306;3.150;2022-09-03T20:30:18;22.00;99.90
30206;DHT22;17010;51.306;3.150;2022-09-03T20:47:51;21.80;99.90
30206;DHT22;17010;51.306;3.150;2022-09-03T20:50:38;21.70;99.90
30206;DHT22;17010;51.306;3.150;2022-09-03T20:53:39;21.70;99.90
30206;DHT22;17010;51.306;3.150;2022-09-03T20:56:23;21.70;99.90
30206;DHT22;17010;51.306;3.150;2022-09-03T21:01:42;21.70;99.90
30206;DHT22;17010;51.306;3.150;2022-09-03T21:04:35;21.70;99.90
30206;DHT22;17010;51.306;3.150;2022-09-03T21:07:19;21.70;99.90
30206;DHT22;17010;51.306;3.150;2022-09-03T21:12:46;21.80;99.90
30206;DHT22;17010;51.306;3.150;2022-09-03T21:15:44;21.80;99.90
30206;DHT22;17010;51.306;3.150;2022-09-03T21:19:18;21.80;99.90
30206;DHT22;17010;51.306;3.150;2022-09-03T21:21:36;21.90;99.90
30206;DHT22;17010;51.306;3.150;2022-09-03T21:26:55;21.90;99.90
30206;DHT22;17010;51.306;3.150;2022-09-03T21:31:52;21.80;99.90
30206;DHT22;17010;51.306;3.150;2022-09-03T21:34:25;21.90;99.90
30206;DHT22;17010;51.306;3.150;2022-09-03T21:36:53;21.90;99.90
30206;DHT22;17010;51.306;3.150;2022-09-03T21:39:31;21.80;99.90
30206;DHT22;17010;51.306;3.150;2022-09-03T21:44:45;21.80;99.90
30206;DHT22;17010;51.306;3.150;2022-09-03T21:47:14;21.80;99.90
30206;DHT22;17010;51.306;3.150;2022-09-03T21:50:07;21.80;99.90
30206;DHT22;17010;51.306;3.150;2022-09-03T21:53:01;21.80;99.90
30206;DHT22;17010;51.306;3.150;2022-09-03T22:00:58;21.80;99.90
30206;DHT22;17010;51.306;3.150;2022-09-03T22:03:26;21.80;99.90
30206;DHT22;17010;51.306;3.150;2022-09-03T22:06:20;21.80;99.90
30206;DHT22;17010;51.306;3.150;2022-09-03T22:08:53;21.80;99.90
30206;DHT22;17010;51.306;3.150;2022-09-03T22:14:20;21.90;99.90
30206;DHT22;17010;51.306;3.150;2022-09-03T22:16:53;21.80;99.90
30206;DHT22;17010;51.306;3.150;2022-09-03T22:19:21;21.90;99.90